Latest Weather Observations for Gold Coast Seaway

IDQ60901

Issued at 8:41 am EST Saturday 30 May 2015 (issued every 10 minutes, with the page automatically refreshed every 10 minutes)

About weather observations | Map of Brisbane area stations | Latest observations for Brisbane area | Other Formats
Station Details ID: 040764 Name: GOLD COAST SEAWAY Lat: -27.94 Lon: 153.43 Height: 2.98 m
Data from the previous 72 hours. | See also: Recent months at Gold Coast Seaway
Date/Time
EST
Tmp

°C
App
Tmp
°C
Dew
Point
°C
Rel
Hum
%
Delta-T

°C
Wind Press
QNH
hPa
Press
MSL
hPa
Rain
since
9 am
mm
Dir
 
Spd
km/h
Gust
km/h
Spd
kts
Gust
kts
30/08:30am 20.3 22.7 20.1 99 0.1 W 7 9 4 5 1022.2 1022.2 0.0
30/08:00am 18.7 20.1 18.7 100 0.0 WNW 9 9 5 5 1022.3 1022.3 0.0
30/07:30am 17.8 18.0 17.6 99 0.1 WNW 13 15 7 8 1022.1 1022.1 0.0
30/07:00am 17.4 17.5 17.4 100 0.0 WNW 13 15 7 8 1021.8 1021.8 0.0
30/06:30am 17.1 17.1 17.1 100 0.0 NW 13 17 7 9 1021.5 1021.5 0.0
30/06:00am 17.4 17.5 17.4 100 0.0 WNW 13 15 7 8 1021.2 1021.2 0.0
30/05:30am 17.0 16.9 17.0 100 0.0 WNW 13 15 7 8 1020.9 1020.9 0.0
30/05:00am 17.2 18.0 17.2 100 0.0 WNW 9 13 5 7 1020.7 1020.7 0.0
30/04:30am 17.1 18.2 17.1 100 0.0 W 7 9 4 5 1020.5 1020.5 0.0
30/04:00am 16.4 18.6 16.4 100 0.0 CALM 0 0 0 0 1020.8 1020.8 0.0
30/03:30am 16.2 17.1 16.2 100 0.0 W 6 7 3 4 1020.9 1020.9 0.0
30/03:00am 16.7 17.8 16.7 100 0.0 W 6 7 3 4 1021.1 1021.1 0.0
30/02:30am 17.2 19.7 17.2 100 0.0 CALM 0 0 0 0 1021.1 1021.1 0.0
30/02:00am 18.3 19.5 18.3 100 0.0 WNW 9 11 5 6 1021.2 1021.2 0.0
30/01:30am 18.8 19.1 18.8 100 0.0 NW 15 17 8 9 1021.2 1021.2 0.0
30/01:00am 18.0 18.3 18.0 100 0.0 WNW 13 13 7 7 1021.7 1021.7 0.0
30/12:30am 17.7 19.1 17.7 100 0.0 WNW 7 9 4 5 1021.7 1021.7 0.0
30/12:00am 18.2 19.4 18.2 100 0.0 WNW 9 11 5 6 1022.1 1022.1 0.0
 
Date/Time
EST
Tmp

°C
App
Tmp
°C
Dew
Point
°C
Rel
Hum
%
Delta-T

°C
Wind Press
QNH
hPa
Press
MSL
hPa
Rain
since
9 am
mm
Dir
 
Spd
km/h
Gust
km/h
Spd
kts
Gust
kts
29/11:30pm 18.5 19.4 18.5 100 0.0 WNW 11 13 6 7 1022.4 1022.4 0.0
29/11:00pm 18.1 19.2 18.1 100 0.0 W 9 11 5 6 1022.6 1022.6 0.0
29/10:30pm 18.2 19.7 18.0 99 0.1 WNW 7 9 4 5 1022.6 1022.6 0.0
29/10:00pm 18.2 20.0 18.2 100 0.0 WNW 6 7 3 4 1022.7 1022.7 0.0
29/09:30pm 19.2 20.1 19.2 100 0.0 WNW 13 15 7 8 1022.5 1022.5 0.0
29/09:00pm 18.7 20.7 18.7 100 0.0 NNW 6 9 3 5 1022.7 1022.7 0.0
29/08:30pm 19.4 21.1 19.4 100 0.0 NNW 9 11 5 6 1022.6 1022.6 0.0
29/08:00pm 20.1 21.8 20.1 100 0.0 NW 11 13 6 7 1022.6 1022.6 0.0
29/07:30pm 20.3 22.1 20.3 100 0.0 NW 11 13 6 7 1022.7 1022.7 0.0
29/07:00pm 20.5 22.3 20.3 99 0.1 NW 11 13 6 7 1022.3 1022.3 0.0
29/06:30pm 20.4 22.6 20.4 100 0.0 NNW 9 11 5 6 1022.2 1022.2 0.0
29/06:00pm 20.9 22.9 20.7 99 0.1 N 11 13 6 7 1022.1 1022.1 0.0
29/05:30pm 21.6 23.4 19.5 88 1.3 NNW 9 11 5 6 1021.9 1021.9 0.0
29/05:00pm 22.2 23.7 22.0 99 0.1 N 17 19 9 10 1021.6 1021.6 0.0
29/04:30pm 22.9 23.5 17.8 73 3.2 N 11 15 6 8 1021.5 1021.5 0.0
29/04:00pm 23.8 23.2 14.5 56 5.5 N 11 15 6 8 1021.2 1021.2 0.0
29/03:30pm 24.6 23.4 15.0 55 5.7 NW 15 19 8 10 1021.2 1021.2 0.0
29/03:00pm 24.8 23.1 14.6 53 6.1 NW 17 20 9 11 1021.0 1021.0 0.0
29/02:30pm 24.7 23.2 14.2 52 6.2 WNW 15 20 8 11 1021.1 1021.1 0.0
29/02:00pm 25.0 23.0 15.0 53 6.0 NW 19 26 10 14 1021.0 1021.0 0.0
29/01:30pm 24.7 22.1 13.9 51 6.4 WNW 20 26 11 14 1021.1 1021.1 0.0
29/01:00pm 24.7 21.7 14.8 54 5.9 NW 24 30 13 16 1021.1 1021.1 0.0
29/12:30pm 24.2 21.9 14.6 55 5.7 NW 20 28 11 15 1021.3 1021.3 0.0
29/12:00pm 24.0 20.6 13.8 53 6.0 NW 24 28 13 15 1022.2 1022.2 0.0
29/11:30am 24.2 22.0 14.9 56 5.5 NW 20 28 11 15 1022.6 1022.6 0.0
29/11:00am 23.4 21.9 16.2 64 4.4 NW 19 24 10 13 1022.9 1022.9 0.0
29/10:30am 22.8 24.7 22.8 100 0.0 WNW 17 22 9 12 1023.3 1023.3 0.0
29/10:00am 22.0 23.4 21.8 99 0.1 WNW 17 20 9 11 1023.6 1023.6 0.0
29/09:30am 20.6 21.8 20.6 100 0.0 NW 15 17 8 9 1024.1 1024.1 0.0
29/09:00am 19.3 20.6 19.3 100 0.0 NW 11 15 6 8 1024.3 1024.3 0.0
29/08:30am 18.3 - - - - NW 7 9 4 5 1024.1 1024.1 0.0
29/08:00am 17.3 17.3 17.3 100 0.0 WNW 13 15 7 8 1024.0 1024.0 0.0
29/07:30am 15.9 15.3 15.7 99 0.1 WNW 13 13 7 7 1023.5 1023.5 0.0
29/07:00am 15.7 15.1 15.7 100 0.0 W 13 15 7 8 1023.5 1023.5 0.0
29/06:30am 15.8 - - - - NW 9 11 5 6 1023.1 1023.1 0.0
29/06:00am 15.5 15.6 15.5 100 0.0 NW 9 11 5 6 1023.0 1023.0 0.0
29/05:30am 15.3 15.3 15.3 100 0.0 W 9 9 5 5 1023.1 1023.1 0.0
29/05:00am 15.2 15.2 15.2 100 0.0 W 9 11 5 6 1022.8 1022.8 0.0
29/04:30am 15.3 15.3 15.3 100 0.0 W 9 11 5 6 1022.7 1022.7 0.0
29/04:00am 15.6 16.1 15.6 100 0.0 WNW 7 9 4 5 1022.7 1022.7 0.0
29/03:30am 15.7 16.3 15.7 100 0.0 W 7 9 4 5 1022.6 1022.6 0.0
29/03:00am 15.8 15.6 15.8 100 0.0 WNW 11 13 6 7 1022.8 1022.8 0.0
29/02:30am 15.7 16.4 15.7 100 0.0 WSW 6 7 3 4 1022.7 1022.7 0.0
29/02:00am 15.9 16.2 15.9 100 0.0 WSW 9 9 5 5 1022.9 1022.9 0.0
29/01:30am 16.1 16.0 16.1 100 0.0 W 11 11 6 6 1023.2 1023.2 0.0
29/01:00am 16.3 16.3 16.3 100 0.0 WNW 11 13 6 7 1023.4 1023.4 0.0
29/12:30am 16.6 16.7 16.6 100 0.0 WNW 11 13 6 7 1023.3 1023.3 0.0
29/12:00am 16.3 16.7 16.3 100 0.0 WNW 9 11 5 6 1023.5 1023.5 0.0
 
Date/Time
EST
Tmp

°C
App
Tmp
°C
Dew
Point
°C
Rel
Hum
%
Delta-T

°C
Wind Press
QNH
hPa
Press
MSL
hPa
Rain
since
9 am
mm
Dir
 
Spd
km/h
Gust
km/h
Spd
kts
Gust
kts
28/11:30pm 16.8 17.0 16.8 100 0.0 WNW 11 13 6 7 1023.9 1023.9 0.0
28/11:00pm 16.7 17.3 16.7 100 0.0 WSW 9 13 5 7 1024.0 1024.0 0.0
28/10:30pm 16.7 18.6 16.7 100 0.0 SW 2 7 1 4 1023.9 1023.9 0.0
28/10:00pm 16.9 17.2 16.9 100 0.0 SW 11 13 6 7 1024.1 1024.1 0.0
28/09:30pm 17.1 17.8 17.1 100 0.0 WSW 9 13 5 7 1024.1 1024.1 0.0
28/09:00pm 17.3 17.7 17.3 100 0.0 SW 11 11 6 6 1024.1 1024.1 0.0
28/08:30pm 17.6 18.2 17.6 100 0.0 SW 11 11 6 6 1023.8 1023.8 0.0
28/08:00pm 18.0 19.5 18.0 100 0.0 WNW 7 9 4 5 1023.8 1023.8 0.0
28/07:30pm 17.9 19.3 17.9 100 0.0 NW 7 7 4 4 1023.4 1023.4 0.0
28/07:00pm 19.3 21.0 19.3 100 0.0 NNW 9 11 5 6 1023.3 1023.3 0.0
28/06:30pm 19.7 20.8 19.7 100 0.0 NNE 13 15 7 8 1023.0 1023.0 0.0
28/06:00pm 19.8 20.9 19.6 99 0.1 NNE 13 17 7 9 1022.7 1022.7 0.0
28/05:30pm 20.1 21.3 19.9 99 0.1 NNE 13 17 7 9 1022.6 1022.6 0.0
28/05:00pm 20.7 21.0 18.8 89 1.2 NE 15 17 8 9 1022.1 1022.1 0.0
28/04:30pm 21.5 20.9 16.7 74 2.9 NE 15 17 8 9 1021.9 1021.9 0.0
28/04:00pm 22.1 21.6 16.8 72 3.2 NE 15 17 8 9 1021.7 1021.7 0.0
28/03:30pm 22.6 22.0 16.6 69 3.7 NE 15 17 8 9 1021.9 1021.9 0.0
28/03:00pm 22.8 22.6 16.8 69 3.7 ENE 13 15 7 8 1021.8 1021.8 0.0
28/02:30pm 22.6 22.1 16.9 70 3.5 ENE 15 17 8 9 1021.5 1021.5 0.0
28/02:00pm 22.7 22.5 16.7 69 3.7 ENE 13 15 7 8 1021.7 1021.7 0.0
28/01:30pm 22.6 22.4 16.6 69 3.7 ENE 13 17 7 9 1022.1 1022.1 0.0
28/01:00pm 23.0 22.2 17.0 69 3.7 E 17 19 9 10 1022.4 1022.4 0.0
28/12:30pm 22.9 22.3 16.7 68 3.8 E 15 19 8 10 1022.9 1022.9 0.0
28/12:00pm 23.3 22.6 15.4 61 4.7 E 13 15 7 8 1023.6 1023.6 0.0
28/11:30am 23.4 23.5 16.4 64 4.3 ESE 11 13 6 7 1023.8 1023.8 0.0
28/11:00am 23.2 23.9 17.0 68 3.8 ESE 9 11 5 6 1024.1 1024.1 0.0
28/10:30am 22.4 24.2 18.2 77 2.6 ESE 6 9 3 5 1024.4 1024.4 0.0
28/10:00am 21.9 24.5 20.5 92 0.9 WSW 7 11 4 6 1024.7 1024.7 0.0
28/09:30am 20.9 23.3 20.9 100 0.0 W 9 11 5 6 1024.4 1024.4 0.0
28/09:00am 19.8 21.7 19.8 100 0.0 SW 9 11 5 6 1024.4 1024.4 0.0
28/08:30am 18.4 19.7 18.4 100 0.0 SW 9 11 5 6 1024.6 1024.6 0.0
28/08:00am 17.3 18.1 17.3 100 0.0 SW 9 15 5 8 1024.3 1024.3 0.0
28/07:30am 16.2 - - - - SW 11 15 6 8 1023.7 1023.7 0.0
28/07:00am 15.2 15.2 15.2 100 0.0 WSW 9 11 5 6 1023.5 1023.5 0.0
28/06:30am 15.0 14.2 15.0 100 0.0 WSW 13 15 7 8 1023.4 1023.4 0.0
28/06:00am 15.2 14.4 15.2 100 0.0 SW 13 15 7 8 1022.9 1022.9 0.0
28/05:30am 15.2 14.4 15.2 100 0.0 SW 13 15 7 8 1022.9 1022.9 0.0
28/05:00am 15.6 16.1 15.6 100 0.0 SW 7 11 4 6 1022.5 1022.5 0.0
28/04:30am 16.0 15.9 16.0 100 0.0 SW 11 13 6 7 1022.6 1022.6 0.0
28/04:00am 16.2 16.6 16.2 100 0.0 WSW 9 9 5 5 1022.6 1022.6 0.0
28/03:30am 16.7 17.6 16.7 100 0.0 WNW 7 7 4 4 1022.6 1022.6 0.0
28/03:00am 16.8 17.8 16.8 100 0.0 NW 7 9 4 5 1022.7 1022.7 0.0
28/02:30am 16.4 16.8 16.4 100 0.0 NNW 9 15 5 8 1022.6 1022.6 0.0
28/02:00am 16.1 16.0 16.1 100 0.0 WSW 11 13 6 7 1022.6 1022.6 0.0
28/01:30am 16.0 15.9 16.0 100 0.0 SW 11 13 6 7 1022.8 1022.8 0.0
28/01:00am 16.0 15.5 16.0 100 0.0 SW 13 19 7 10 1023.0 1023.0 0.0
28/12:30am 16.2 15.8 16.2 100 0.0 SW 13 17 7 9 1023.2 1023.2 0.0
28/12:00am 16.3 16.3 16.3 100 0.0 SW 11 15 6 8 1023.2 1023.2 0.0
 
Date/Time
EST
Tmp

°C
App
Tmp
°C
Dew
Point
°C
Rel
Hum
%
Delta-T

°C
Wind Press
QNH
hPa
Press
MSL
hPa
Rain
since
9 am
mm
Dir
 
Spd
km/h
Gust
km/h
Spd
kts
Gust
kts
27/11:30pm 16.4 16.5 16.4 100 0.0 SW 11 15 6 8 1023.4 1023.4 0.0
27/11:00pm 16.4 16.5 16.4 100 0.0 SW 11 13 6 7 1023.3 1023.3 0.0
27/10:30pm 16.4 16.1 16.4 100 0.0 SW 13 15 7 8 1023.3 1023.3 0.0
27/10:00pm 16.6 16.7 16.6 100 0.0 SW 11 15 6 8 1023.3 1023.3 0.0
27/09:30pm 16.5 16.6 16.5 100 0.0 SSW 11 15 6 8 1023.4 1023.4 0.0
27/09:00pm 16.7 16.9 16.7 100 0.0 SSW 11 15 6 8 1023.5 1023.5 0.0
27/08:30pm 16.8 17.8 16.8 100 0.0 SSW 7 11 4 6 1023.5 1023.5 0.0
27/08:00pm 17.3 18.1 17.3 100 0.0 SW 9 11 5 6 1023.6 1023.6 0.0
27/07:30pm 18.3 18.3 17.1 93 0.7 SE 13 17 7 9 1023.3 1023.3 0.0
27/07:00pm 19.1 19.8 18.9 99 0.1 SE 13 15 7 8 1023.0 1023.0 0.0
27/06:30pm 18.9 19.6 18.9 100 0.0 SE 13 17 7 9 1022.9 1022.9 0.0
27/06:00pm 18.3 19.3 17.7 96 0.4 SE 9 11 5 6 1022.8 1022.8 0.0
27/05:30pm 19.1 19.8 17.9 93 0.7 SE 11 13 6 7 1022.5 1022.5 0.0
27/05:00pm 19.6 19.9 17.9 90 1.0 ESE 13 15 7 8 1022.4 1022.4 0.0
27/04:30pm 20.1 21.8 20.1 100 0.0 ESE 11 15 6 8 1022.1 1022.1 0.0
27/04:00pm 20.9 20.7 17.5 81 2.1 SE 15 17 8 9 1022.0 1022.0 0.0
27/03:30pm 21.3 21.1 17.5 79 2.3 SE 15 19 8 10 1021.8 1021.8 0.0
27/03:00pm 21.7 20.8 17.7 78 2.5 SE 19 20 10 11 1021.8 1021.8 0.0
27/02:30pm 22.7 22.3 18.0 75 2.9 SE 17 20 9 11 1022.1 1022.1 0.0
27/02:00pm 22.6 22.1 18.6 78 2.5 SE 19 22 10 12 1022.1 1022.1 0.0
27/01:30pm 22.8 23.2 19.0 79 2.4 SSE 15 17 8 9 1022.4 1022.4 0.0
27/01:00pm 23.1 23.7 20.2 84 1.9 SSE 17 19 9 10 1022.5 1022.5 0.0
27/12:30pm 22.6 23.5 20.9 90 1.1 SSE 17 19 9 10 1023.1 1023.1 0.0
27/12:00pm 21.9 22.4 20.9 94 0.6 SSE 19 22 10 12 1023.8 1023.8 0.0
27/11:30am 22.1 22.9 19.8 87 1.5 SSE 15 19 8 10 1024.3 1024.3 0.0
27/11:00am 21.2 21.7 21.2 100 0.0 SE 20 26 11 14 1024.7 1024.7 0.0
27/10:30am 21.3 21.7 19.9 92 0.9 SSE 17 22 9 12 1025.2 1025.2 0.0
27/10:00am 20.0 20.9 20.0 100 0.0 SSE 15 19 8 10 1025.6 1025.6 0.0
27/09:30am 19.7 20.0 19.7 100 0.0 SSE 17 22 9 12 1025.6 1025.6 0.0
27/09:00am 19.6 19.3 19.6 100 0.0 SE 20 28 11 15 1025.3 1025.3 0.0

Latest Capital City Observations: Canberra | Sydney | Melbourne | Brisbane | Adelaide | Perth | Hobart | Darwin

Other Formats:

Comma delimited format used in spreadsheet applications
http://www.bom.gov.au/fwo/IDQ60901/IDQ60901.94580.axf

JavaScript Object Notation format (JSON) in row-major order
http://www.bom.gov.au/fwo/IDQ60901/IDQ60901.94580.json